Whitewater, Montana
Current Conditions -  °F | °C
As of 3:53 PM on Friday 31 Oct 2014 (Local Time) from KGGW Reporting Station
Clear Clear  
Wind Chill: 53°   Ceiling: Unl
Heat Index: 53°   Visibility: 10mi
Dew Point: 33°   Wind: 18mph
Humidity: 47%   Direction: 140°SE
Pressure: 29.82"   Gusts: NA
Location:  48.76°N, 107.62°W
Report Text: KGGW 312153Z AUTO 14016KT 10SM CLR 12/01 A2982 RMK AO2 SLP115 T01170006
Loading
Personal Weather Stations






























Interactive Weather Map
Tropical Storm Tracking
New forecast layout! Learn more

10-Day Weather Forecast

Advertisements
Track Severe Weather on mobile